Calvin, Texas
Current Conditions -  °F | °C
As of 4:55 PM on Thursday 18 Dec 2014 (Local Time) from KGYB Reporting Station
Overcast Overcast  
Wind Chill: 58°   Ceiling: 700
Heat Index: 58°   Visibility: 7mi
Dew Point: 55°   Wind: 5mph
Humidity: 89%   Direction: 40°NE
Pressure: 30.09"   Gusts: NA
Location:  30.1644°N, 97.2747°W
Report Text: KGYB 182255Z AUTO 04004KT 7SM OVC007 15/13 A3009 RMK AO2 T01460128
Loading
Personal Weather Stations






























Interactive Weather Map New forecast layout! Learn more

10-Day Weather Forecast

Advertisements
Track Severe Weather on mobile